Perea, New Mexico
Current Conditions -  °F | °C
As of 7:53 PM on Tuesday 25 Nov 2014 (Local Time) from KGUP Reporting Station
Clear Clear  
Wind Chill: 24°   Ceiling: Unl
Heat Index: 32°   Visibility: 10mi
Dew Point:   Wind: 10mph
Humidity: 26%   Direction: 260°W
Pressure: 30.37"   Gusts: NA
Location:  35.4212°N, 108.53°W
Report Text: KGUP 260253Z AUTO 26009KT 10SM CLR 00/M18 A3037 RMK AO2 SLP347 T00001178 53008
Loading
Personal Weather Stations






























Interactive Weather Map New forecast layout! Learn more

10-Day Weather Forecast

Advertisements
Track Severe Weather on mobile